This is the latest recevied weather packets stored in our database for station/object 9W2KHE-10. If no packets are shown the sender has not sent any weather packets the latest 10 day(s).
| Time | Temp. | Humidity | Pressure | Rain* | Wind** | Luminosity | Snow |
|---|---|---|---|---|---|---|---|
| 1788136196 | 84° F | 63% | 760.9 mmHg | - | - | - | - |
| 1788135296 | 84° F | 62% | 760.8 mmHg | - | - | - | - |
| 1788134396 | 84° F | 61% | 760.7 mmHg | - | - | - | - |
| 1788133496 | 84° F | 61% | 760.7 mmHg | - | - | - | - |
| 1788132595 | 84° F | 61% | 760.6 mmHg | - | - | - | - |
| 1788131695 | 83° F | 61% | 760.5 mmHg | - | - | - | - |
| 1788130795 | 83° F | 62% | 760.4 mmHg | - | - | - | - |
| 1788129895 | 83° F | 61% | 760.6 mmHg | - | - | - | - |
| 1788128995 | 83° F | 61% | 760.7 mmHg | - | - | - | - |
| 1788128095 | 83° F | 62% | 761 mmHg | - | - | - | - |
| 1788127198 | 83° F | 61% | 761.2 mmHg | - | - | - | - |
| 1788126298 | 83° F | 62% | 761.2 mmHg | - | - | - | - |
| 1788125398 | 82° F | 62% | 761.2 mmHg | - | - | - | - |
| 1788124497 | 82° F | 64% | 761.3 mmHg | - | - | - | - |
| 1788123597 | 82° F | 63% | 761.6 mmHg | - | - | - | - |
| 1788122697 | 82° F | 63% | 761.8 mmHg | - | - | - | - |
| 1788121797 | 83° F | 61% | 761.8 mmHg | - | - | - | - |
| 1788120897 | 83° F | 61% | 761.7 mmHg | - | - | - | - |
| 1788119997 | 83° F | 60% | 761.7 mmHg | - | - | - | - |
| 1788119097 | 84° F | 61% | 761.7 mmHg | - | - | - | - |
| 1788118197 | 84° F | 59% | 761.7 mmHg | - | - | - | - |
| 1788117297 | 86° F | 57% | 761.6 mmHg | - | - | - | - |
| 1788116396 | 87° F | 61% | 760.6 mmHg | - | - | - | - |
| 1788115496 | 87° F | 60% | 760.5 mmHg | - | - | - | - |
| 1788114596 | 88° F | 60% | 760.4 mmHg | - | - | - | - |
* Rain since midnight (hover to see other rain measurements)
** Current wind speed in m/s (hover to see current wind gust speed)